sensor_id;sensor_type;location;lat;lon;timestamp;P1;durP1;ratioP1;P2;durP2;ratioP2
23472;SDS011;11909;52.516;13.564;2023-06-22T00:01:22;10.90;;;9.40;;
23472;SDS011;11909;52.516;13.564;2023-06-22T00:03:50;9.85;;;8.90;;
23472;SDS011;11909;52.516;13.564;2023-06-22T00:06:18;10.43;;;9.35;;
23472;SDS011;11909;52.516;13.564;2023-06-22T00:08:47;10.80;;;9.77;;
23472;SDS011;11909;52.516;13.564;2023-06-22T00:11:15;10.77;;;9.10;;
23472;SDS011;11909;52.516;13.564;2023-06-22T00:13:43;9.43;;;8.45;;
23472;SDS011;11909;52.516;13.564;2023-06-22T00:16:13;11.45;;;9.13;;
23472;SDS011;11909;52.516;13.564;2023-06-22T00:18:41;11.57;;;8.73;;
23472;SDS011;11909;52.516;13.564;2023-06-22T00:21:13;11.40;;;9.65;;
23472;SDS011;11909;52.516;13.564;2023-06-22T00:23:41;10.05;;;8.57;;
23472;SDS011;11909;52.516;13.564;2023-06-22T00:26:11;9.15;;;8.23;;
23472;SDS011;11909;52.516;13.564;2023-06-22T00:28:39;10.13;;;9.13;;
23472;SDS011;11909;52.516;13.564;2023-06-22T00:31:07;12.73;;;9.50;;
23472;SDS011;11909;52.516;13.564;2023-06-22T00:33:35;9.63;;;8.70;;
23472;SDS011;11909;52.516;13.564;2023-06-22T00:36:03;10.27;;;9.15;;
23472;SDS011;11909;52.516;13.564;2023-06-22T00:38:31;9.85;;;8.95;;
23472;SDS011;11909;52.516;13.564;2023-06-22T00:40:59;14.15;;;10.52;;
23472;SDS011;11909;52.516;13.564;2023-06-22T00:43:28;10.63;;;9.57;;
23472;SDS011;11909;52.516;13.564;2023-06-22T00:45:56;9.70;;;8.63;;
23472;SDS011;11909;52.516;13.564;2023-06-22T00:48:24;9.93;;;8.52;;
23472;SDS011;11909;52.516;13.564;2023-06-22T00:50:53;9.38;;;8.05;;
23472;SDS011;11909;52.516;13.564;2023-06-22T00:53:22;10.27;;;9.20;;
23472;SDS011;11909;52.516;13.564;2023-06-22T00:55:50;10.95;;;8.40;;
23472;SDS011;11909;52.516;13.564;2023-06-22T00:58:18;9.40;;;8.50;;
23472;SDS011;11909;52.516;13.564;2023-06-22T01:00:51;12.75;;;8.50;;
23472;SDS011;11909;52.516;13.564;2023-06-22T01:05:47;9.55;;;8.07;;
23472;SDS011;11909;52.516;13.564;2023-06-22T01:08:22;10.27;;;8.68;;
23472;SDS011;11909;52.516;13.564;2023-06-22T01:10:58;9.38;;;8.45;;
23472;SDS011;11909;52.516;13.564;2023-06-22T01:13:32;10.27;;;8.75;;
23472;SDS011;11909;52.516;13.564;2023-06-22T01:16:07;10.40;;;8.93;;
23472;SDS011;11909;52.516;13.564;2023-06-22T01:18:40;9.00;;;8.10;;
23472;SDS011;11909;52.516;13.564;2023-06-22T01:21:10;9.55;;;8.55;;
23472;SDS011;11909;52.516;13.564;2023-06-22T01:23:50;10.73;;;8.73;;
23472;SDS011;11909;52.516;13.564;2023-06-22T01:26:36;9.80;;;8.80;;
23472;SDS011;11909;52.516;13.564;2023-06-22T01:29:11;10.27;;;8.80;;
23472;SDS011;11909;52.516;13.564;2023-06-22T01:31:41;9.88;;;8.98;;
23472;SDS011;11909;52.516;13.564;2023-06-22T01:34:12;11.45;;;8.95;;
23472;SDS011;11909;52.516;13.564;2023-06-22T01:36:42;11.60;;;8.27;;
23472;SDS011;11909;52.516;13.564;2023-06-22T01:39:10;10.15;;;9.15;;
23472;SDS011;11909;52.516;13.564;2023-06-22T01:41:40;10.82;;;9.65;;
23472;SDS011;11909;52.516;13.564;2023-06-22T01:44:11;10.57;;;9.13;;
23472;SDS011;11909;52.516;13.564;2023-06-22T01:46:40;14.70;;;9.40;;
23472;SDS011;11909;52.516;13.564;2023-06-22T01:49:08;11.05;;;8.73;;
23472;SDS011;11909;52.516;13.564;2023-06-22T01:51:36;9.27;;;8.30;;
23472;SDS011;11909;52.516;13.564;2023-06-22T01:54:05;10.73;;;9.73;;
23472;SDS011;11909;52.516;13.564;2023-06-22T01:56:34;12.15;;;9.32;;
23472;SDS011;11909;52.516;13.564;2023-06-22T01:59:03;10.25;;;9.32;;
23472;SDS011;11909;52.516;13.564;2023-06-22T02:01:39;10.45;;;9.45;;
23472;SDS011;11909;52.516;13.564;2023-06-22T02:04:12;10.38;;;9.20;;
23472;SDS011;11909;52.516;13.564;2023-06-22T02:06:42;11.93;;;9.95;;
23472;SDS011;11909;52.516;13.564;2023-06-22T02:09:14;11.82;;;10.18;;
23472;SDS011;11909;52.516;13.564;2023-06-22T02:11:45;11.38;;;10.18;;
23472;SDS011;11909;52.516;13.564;2023-06-22T02:14:14;10.43;;;9.43;;
23472;SDS011;11909;52.516;13.564;2023-06-22T02:16:46;14.00;;;11.43;;
23472;SDS011;11909;52.516;13.564;2023-06-22T02:19:14;12.00;;;10.35;;
23472;SDS011;11909;52.516;13.564;2023-06-22T02:21:45;11.35;;;10.10;;
23472;SDS011;11909;52.516;13.564;2023-06-22T02:24:13;12.23;;;10.63;;
23472;SDS011;11909;52.516;13.564;2023-06-22T02:26:40;11.10;;;10.00;;
23472;SDS011;11909;52.516;13.564;2023-06-22T02:29:11;16.23;;;10.65;;
23472;SDS011;11909;52.516;13.564;2023-06-22T02:31:39;11.57;;;10.43;;
23472;SDS011;11909;52.516;13.564;2023-06-22T02:34:09;13.32;;;10.43;;
23472;SDS011;11909;52.516;13.564;2023-06-22T02:36:37;12.45;;;11.20;;
23472;SDS011;11909;52.516;13.564;2023-06-22T02:39:05;13.20;;;10.73;;
23472;SDS011;11909;52.516;13.564;2023-06-22T02:41:32;11.55;;;10.15;;
23472;SDS011;11909;52.516;13.564;2023-06-22T02:44:00;12.40;;;10.48;;
23472;SDS011;11909;52.516;13.564;2023-06-22T02:46:28;12.52;;;11.30;;
23472;SDS011;11909;52.516;13.564;2023-06-22T02:48:56;10.70;;;9.50;;
23472;SDS011;11909;52.516;13.564;2023-06-22T02:51:25;12.43;;;10.93;;
23472;SDS011;11909;52.516;13.564;2023-06-22T02:53:53;11.52;;;10.32;;
23472;SDS011;11909;52.516;13.564;2023-06-22T02:56:24;15.80;;;12.75;;
23472;SDS011;11909;52.516;13.564;2023-06-22T02:58:52;13.15;;;11.75;;
23472;SDS011;11909;52.516;13.564;2023-06-22T03:01:20;11.75;;;10.45;;
23472;SDS011;11909;52.516;13.564;2023-06-22T03:03:51;14.13;;;12.15;;
23472;SDS011;11909;52.516;13.564;2023-06-22T03:06:19;15.15;;;12.18;;
23472;SDS011;11909;52.516;13.564;2023-06-22T03:08:51;13.68;;;11.48;;
23472;SDS011;11909;52.516;13.564;2023-06-22T03:11:18;13.80;;;11.98;;
23472;SDS011;11909;52.516;13.564;2023-06-22T03:13:47;16.00;;;12.57;;
23472;SDS011;11909;52.516;13.564;2023-06-22T03:16:14;13.27;;;11.88;;
23472;SDS011;11909;52.516;13.564;2023-06-22T03:18:42;13.73;;;10.88;;
23472;SDS011;11909;52.516;13.564;2023-06-22T03:21:10;14.23;;;10.68;;
23472;SDS011;11909;52.516;13.564;2023-06-22T03:23:38;11.48;;;9.98;;
23472;SDS011;11909;52.516;13.564;2023-06-22T03:26:07;11.98;;;9.25;;
23472;SDS011;11909;52.516;13.564;2023-06-22T03:28:36;16.75;;;10.10;;
23472;SDS011;11909;52.516;13.564;2023-06-22T03:31:04;11.93;;;9.32;;
23472;SDS011;11909;52.516;13.564;2023-06-22T03:33:33;10.07;;;8.50;;
23472;SDS011;11909;52.516;13.564;2023-06-22T03:36:01;9.60;;;8.02;;
23472;SDS011;11909;52.516;13.564;2023-06-22T03:38:29;9.35;;;7.93;;
23472;SDS011;11909;52.516;13.564;2023-06-22T03:40:57;12.40;;;8.50;;
23472;SDS011;11909;52.516;13.564;2023-06-22T03:43:26;10.60;;;8.18;;
23472;SDS011;11909;52.516;13.564;2023-06-22T03:45:54;8.27;;;7.47;;
23472;SDS011;11909;52.516;13.564;2023-06-22T03:48:22;10.00;;;6.93;;
23472;SDS011;11909;52.516;13.564;2023-06-22T03:50:50;10.77;;;8.10;;
23472;SDS011;11909;52.516;13.564;2023-06-22T03:53:17;8.32;;;7.07;;
23472;SDS011;11909;52.516;13.564;2023-06-22T03:55:49;9.13;;;7.35;;
23472;SDS011;11909;52.516;13.564;2023-06-22T03:58:17;8.73;;;7.28;;
23472;SDS011;11909;52.516;13.564;2023-06-22T04:00:48;8.00;;;7.20;;
23472;SDS011;11909;52.516;13.564;2023-06-22T04:03:16;10.38;;;8.45;;
23472;SDS011;11909;52.516;13.564;2023-06-22T04:05:46;10.13;;;8.10;;
23472;SDS011;11909;52.516;13.564;2023-06-22T04:08:14;8.07;;;7.28;;
23472;SDS011;11909;52.516;13.564;2023-06-22T04:10:42;9.35;;;7.10;;
23472;SDS011;11909;52.516;13.564;2023-06-22T04:13:11;8.52;;;6.47;;
23472;SDS011;11909;52.516;13.564;2023-06-22T04:15:39;10.02;;;7.22;;
23472;SDS011;11909;52.516;13.564;2023-06-22T04:18:08;8.60;;;6.78;;
23472;SDS011;11909;52.516;13.564;2023-06-22T04:20:36;9.87;;;6.53;;
23472;SDS011;11909;52.516;13.564;2023-06-22T04:23:04;6.97;;;6.25;;
23472;SDS011;11909;52.516;13.564;2023-06-22T04:25:33;6.65;;;5.40;;
23472;SDS011;11909;52.516;13.564;2023-06-22T04:28:01;9.20;;;6.13;;
23472;SDS011;11909;52.516;13.564;2023-06-22T04:30:32;5.85;;;5.20;;
23472;SDS011;11909;52.516;13.564;2023-06-22T04:33:00;11.35;;;5.93;;
23472;SDS011;11909;52.516;13.564;2023-06-22T04:35:29;13.13;;;6.82;;
23472;SDS011;11909;52.516;13.564;2023-06-22T04:37:57;9.38;;;6.22;;
23472;SDS011;11909;52.516;13.564;2023-06-22T04:40:26;7.72;;;6.10;;
23472;SDS011;11909;52.516;13.564;2023-06-22T04:42:54;7.00;;;6.22;;
23472;SDS011;11909;52.516;13.564;2023-06-22T04:45:22;7.50;;;6.18;;
23472;SDS011;11909;52.516;13.564;2023-06-22T04:47:49;6.90;;;6.05;;
23472;SDS011;11909;52.516;13.564;2023-06-22T04:50:18;9.52;;;6.65;;
23472;SDS011;11909;52.516;13.564;2023-06-22T04:52:48;6.90;;;6.25;;
23472;SDS011;11909;52.516;13.564;2023-06-22T04:55:17;9.60;;;7.60;;
23472;SDS011;11909;52.516;13.564;2023-06-22T04:57:46;9.38;;;7.15;;
23472;SDS011;11909;52.516;13.564;2023-06-22T05:00:16;8.93;;;6.40;;
23472;SDS011;11909;52.516;13.564;2023-06-22T05:02:46;11.20;;;7.13;;
23472;SDS011;11909;52.516;13.564;2023-06-22T05:05:14;9.80;;;6.70;;
23472;SDS011;11909;52.516;13.564;2023-06-22T05:07:43;10.48;;;7.63;;
23472;SDS011;11909;52.516;13.564;2023-06-22T05:10:15;12.00;;;7.18;;
23472;SDS011;11909;52.516;13.564;2023-06-22T05:12:43;8.23;;;7.00;;
23472;SDS011;11909;52.516;13.564;2023-06-22T05:15:10;8.18;;;6.20;;
23472;SDS011;11909;52.516;13.564;2023-06-22T05:17:39;9.35;;;6.40;;
23472;SDS011;11909;52.516;13.564;2023-06-22T05:20:10;9.50;;;6.65;;
23472;SDS011;11909;52.516;13.564;2023-06-22T05:22:39;27.88;;;17.35;;
23472;SDS011;11909;52.516;13.564;2023-06-22T05:25:09;15.50;;;10.80;;
23472;SDS011;11909;52.516;13.564;2023-06-22T05:27:39;9.95;;;7.43;;
23472;SDS011;11909;52.516;13.564;2023-06-22T05:30:07;9.93;;;7.18;;
23472;SDS011;11909;52.516;13.564;2023-06-22T05:35:06;9.50;;;6.10;;
23472;SDS011;11909;52.516;13.564;2023-06-22T05:37:34;7.18;;;5.45;;
23472;SDS011;11909;52.516;13.564;2023-06-22T05:40:02;8.18;;;6.28;;
23472;SDS011;11909;52.516;13.564;2023-06-22T05:42:31;7.43;;;5.88;;
23472;SDS011;11909;52.516;13.564;2023-06-22T05:45:00;5.50;;;4.82;;
23472;SDS011;11909;52.516;13.564;2023-06-22T05:47:28;8.32;;;5.15;;
23472;SDS011;11909;52.516;13.564;2023-06-22T05:49:55;8.25;;;4.78;;
23472;SDS011;11909;52.516;13.564;2023-06-22T05:52:24;5.85;;;4.65;;
23472;SDS011;11909;52.516;13.564;2023-06-22T05:54:52;4.93;;;4.40;;
23472;SDS011;11909;52.516;13.564;2023-06-22T05:57:20;5.00;;;4.28;;
23472;SDS011;11909;52.516;13.564;2023-06-22T05:59:48;7.60;;;4.85;;
23472;SDS011;11909;52.516;13.564;2023-06-22T06:02:18;4.60;;;3.85;;
23472;SDS011;11909;52.516;13.564;2023-06-22T06:04:46;29.35;;;20.60;;
23472;SDS011;11909;52.516;13.564;2023-06-22T06:07:14;9.32;;;6.82;;
23472;SDS011;11909;52.516;13.564;2023-06-22T06:09:42;6.95;;;5.85;;
23472;SDS011;11909;52.516;13.564;2023-06-22T06:12:10;10.70;;;6.80;;
23472;SDS011;11909;52.516;13.564;2023-06-22T06:14:38;5.75;;;3.92;;
23472;SDS011;11909;52.516;13.564;2023-06-22T06:17:05;4.35;;;3.67;;
23472;SDS011;11909;52.516;13.564;2023-06-22T06:19:35;5.28;;;3.75;;
23472;SDS011;11909;52.516;13.564;2023-06-22T06:22:03;6.43;;;3.60;;
23472;SDS011;11909;52.516;13.564;2023-06-22T06:24:31;4.68;;;3.50;;
23472;SDS011;11909;52.516;13.564;2023-06-22T06:26:59;6.18;;;3.53;;
23472;SDS011;11909;52.516;13.564;2023-06-22T06:29:31;4.65;;;3.83;;
23472;SDS011;11909;52.516;13.564;2023-06-22T06:31:59;5.80;;;3.63;;
23472;SDS011;11909;52.516;13.564;2023-06-22T06:34:27;6.05;;;3.60;;
23472;SDS011;11909;52.516;13.564;2023-06-22T06:36:56;7.60;;;4.18;;
23472;SDS011;11909;52.516;13.564;2023-06-22T06:39:24;5.32;;;3.72;;
23472;SDS011;11909;52.516;13.564;2023-06-22T06:41:52;5.05;;;3.17;;
23472;SDS011;11909;52.516;13.564;2023-06-22T06:44:20;6.55;;;3.20;;
23472;SDS011;11909;52.516;13.564;2023-06-22T06:46:48;4.57;;;3.40;;
23472;SDS011;11909;52.516;13.564;2023-06-22T06:49:16;12.85;;;8.20;;
23472;SDS011;11909;52.516;13.564;2023-06-22T06:51:44;9.40;;;5.88;;
23472;SDS011;11909;52.516;13.564;2023-06-22T06:54:13;5.32;;;4.25;;
23472;SDS011;11909;52.516;13.564;2023-06-22T06:56:41;3.75;;;3.08;;
23472;SDS011;11909;52.516;13.564;2023-06-22T06:59:11;5.30;;;3.00;;
23472;SDS011;11909;52.516;13.564;2023-06-22T07:01:39;5.43;;;3.38;;
23472;SDS011;11909;52.516;13.564;2023-06-22T07:04:07;4.00;;;2.88;;
23472;SDS011;11909;52.516;13.564;2023-06-22T07:06:35;3.25;;;2.90;;
23472;SDS011;11909;52.516;13.564;2023-06-22T07:09:04;4.78;;;3.03;;
23472;SDS011;11909;52.516;13.564;2023-06-22T07:11:33;5.68;;;3.67;;
23472;SDS011;11909;52.516;13.564;2023-06-22T07:14:01;14.80;;;7.73;;
23472;SDS011;11909;52.516;13.564;2023-06-22T07:16:29;13.10;;;10.02;;
23472;SDS011;11909;52.516;13.564;2023-06-22T07:18:57;15.43;;;9.98;;
23472;SDS011;11909;52.516;13.564;2023-06-22T07:21:27;11.77;;;8.30;;
23472;SDS011;11909;52.516;13.564;2023-06-22T07:23:54;7.45;;;4.60;;
23472;SDS011;11909;52.516;13.564;2023-06-22T07:26:23;4.63;;;3.38;;
23472;SDS011;11909;52.516;13.564;2023-06-22T07:28:52;6.13;;;3.13;;
23472;SDS011;11909;52.516;13.564;2023-06-22T07:31:20;4.43;;;3.13;;
23472;SDS011;11909;52.516;13.564;2023-06-22T07:33:48;4.32;;;2.70;;
23472;SDS011;11909;52.516;13.564;2023-06-22T07:36:16;4.85;;;2.67;;
23472;SDS011;11909;52.516;13.564;2023-06-22T07:38:44;4.90;;;3.22;;
23472;SDS011;11909;52.516;13.564;2023-06-22T07:41:13;4.13;;;2.70;;
23472;SDS011;11909;52.516;13.564;2023-06-22T07:43:41;6.00;;;2.90;;
23472;SDS011;11909;52.516;13.564;2023-06-22T07:46:10;4.25;;;2.60;;
23472;SDS011;11909;52.516;13.564;2023-06-22T07:48:38;3.08;;;2.78;;
23472;SDS011;11909;52.516;13.564;2023-06-22T07:51:08;4.55;;;2.75;;
23472;SDS011;11909;52.516;13.564;2023-06-22T07:53:39;4.00;;;2.83;;
23472;SDS011;11909;52.516;13.564;2023-06-22T07:56:07;5.90;;;3.10;;
23472;SDS011;11909;52.516;13.564;2023-06-22T07:58:37;7.03;;;4.53;;
23472;SDS011;11909;52.516;13.564;2023-06-22T08:01:05;10.90;;;6.20;;
23472;SDS011;11909;52.516;13.564;2023-06-22T08:03:37;6.10;;;4.55;;
23472;SDS011;11909;52.516;13.564;2023-06-22T08:06:05;7.22;;;3.75;;
23472;SDS011;11909;52.516;13.564;2023-06-22T08:08:36;5.03;;;2.97;;
23472;SDS011;11909;52.516;13.564;2023-06-22T08:11:04;5.00;;;3.28;;
23472;SDS011;11909;52.516;13.564;2023-06-22T08:13:32;4.03;;;2.83;;
23472;SDS011;11909;52.516;13.564;2023-06-22T08:16:00;4.60;;;2.97;;
23472;SDS011;11909;52.516;13.564;2023-06-22T08:18:28;3.78;;;2.85;;
23472;SDS011;11909;52.516;13.564;2023-06-22T08:20:57;5.82;;;3.30;;
23472;SDS011;11909;52.516;13.564;2023-06-22T08:23:25;9.82;;;4.22;;
23472;SDS011;11909;52.516;13.564;2023-06-22T08:25:53;17.33;;;3.90;;
23472;SDS011;11909;52.516;13.564;2023-06-22T08:28:21;5.70;;;3.20;;
23472;SDS011;11909;52.516;13.564;2023-06-22T08:30:49;4.20;;;3.05;;
23472;SDS011;11909;52.516;13.564;2023-06-22T08:33:17;4.80;;;2.75;;
23472;SDS011;11909;52.516;13.564;2023-06-22T08:35:53;4.85;;;3.30;;
23472;SDS011;11909;52.516;13.564;2023-06-22T08:38:23;3.17;;;2.80;;
23472;SDS011;11909;52.516;13.564;2023-06-22T08:40:51;3.00;;;2.70;;
23472;SDS011;11909;52.516;13.564;2023-06-22T08:43:19;3.47;;;2.90;;
23472;SDS011;11909;52.516;13.564;2023-06-22T08:45:47;4.07;;;2.90;;
23472;SDS011;11909;52.516;13.564;2023-06-22T08:48:15;4.55;;;3.17;;
23472;SDS011;11909;52.516;13.564;2023-06-22T08:50:43;4.93;;;2.75;;
23472;SDS011;11909;52.516;13.564;2023-06-22T08:53:11;4.90;;;2.95;;
23472;SDS011;11909;52.516;13.564;2023-06-22T08:55:40;14.68;;;9.95;;
23472;SDS011;11909;52.516;13.564;2023-06-22T08:58:08;9.05;;;6.47;;
23472;SDS011;11909;52.516;13.564;2023-06-22T09:00:36;5.57;;;3.22;;
23472;SDS011;11909;52.516;13.564;2023-06-22T09:03:04;5.38;;;2.85;;
23472;SDS011;11909;52.516;13.564;2023-06-22T09:05:32;7.00;;;2.90;;
23472;SDS011;11909;52.516;13.564;2023-06-22T09:08:00;3.15;;;2.60;;
23472;SDS011;11909;52.516;13.564;2023-06-22T09:10:28;3.55;;;2.85;;
23472;SDS011;11909;52.516;13.564;2023-06-22T09:12:58;5.75;;;2.97;;
23472;SDS011;11909;52.516;13.564;2023-06-22T09:15:26;6.57;;;3.00;;
23472;SDS011;11909;52.516;13.564;2023-06-22T09:17:54;4.88;;;2.67;;
23472;SDS011;11909;52.516;13.564;2023-06-22T09:20:23;17.70;;;11.05;;
23472;SDS011;11909;52.516;13.564;2023-06-22T09:22:52;36.25;;;28.63;;
23472;SDS011;11909;52.516;13.564;2023-06-22T09:25:20;8.40;;;6.45;;
23472;SDS011;11909;52.516;13.564;2023-06-22T09:27:47;7.85;;;3.85;;
23472;SDS011;11909;52.516;13.564;2023-06-22T09:30:17;5.65;;;3.13;;
23472;SDS011;11909;52.516;13.564;2023-06-22T09:32:45;4.43;;;2.88;;
23472;SDS011;11909;52.516;13.564;2023-06-22T09:35:13;7.43;;;3.55;;
23472;SDS011;11909;52.516;13.564;2023-06-22T09:37:41;5.72;;;3.58;;
23472;SDS011;11909;52.516;13.564;2023-06-22T09:40:09;6.15;;;2.95;;
23472;SDS011;11909;52.516;13.564;2023-06-22T09:42:39;3.92;;;3.10;;
23472;SDS011;11909;52.516;13.564;2023-06-22T09:45:08;5.38;;;3.05;;
23472;SDS011;11909;52.516;13.564;2023-06-22T09:47:38;3.30;;;2.97;;
23472;SDS011;11909;52.516;13.564;2023-06-22T09:50:07;4.23;;;2.80;;
23472;SDS011;11909;52.516;13.564;2023-06-22T09:52:35;4.05;;;3.00;;
23472;SDS011;11909;52.516;13.564;2023-06-22T09:55:06;7.28;;;2.88;;
23472;SDS011;11909;52.516;13.564;2023-06-22T09:57:35;3.38;;;2.90;;
23472;SDS011;11909;52.516;13.564;2023-06-22T10:00:03;7.13;;;2.75;;
23472;SDS011;11909;52.516;13.564;2023-06-22T10:02:35;7.22;;;3.47;;
23472;SDS011;11909;52.516;13.564;2023-06-22T10:05:05;14.88;;;3.85;;
23472;SDS011;11909;52.516;13.564;2023-06-22T10:07:34;6.90;;;3.13;;
23472;SDS011;11909;52.516;13.564;2023-06-22T10:10:06;3.60;;;3.00;;
23472;SDS011;11909;52.516;13.564;2023-06-22T10:12:35;3.67;;;2.70;;
23472;SDS011;11909;52.516;13.564;2023-06-22T10:15:03;3.20;;;2.80;;
23472;SDS011;11909;52.516;13.564;2023-06-22T10:17:32;10.77;;;8.38;;
23472;SDS011;11909;52.516;13.564;2023-06-22T10:20:00;8.30;;;6.38;;
23472;SDS011;11909;52.516;13.564;2023-06-22T10:22:33;5.90;;;4.40;;
23472;SDS011;11909;52.516;13.564;2023-06-22T10:25:01;7.35;;;2.90;;
23472;SDS011;11909;52.516;13.564;2023-06-22T10:27:29;5.15;;;2.90;;
23472;SDS011;11909;52.516;13.564;2023-06-22T10:29:58;7.25;;;3.10;;
23472;SDS011;11909;52.516;13.564;2023-06-22T10:32:25;4.25;;;2.47;;
23472;SDS011;11909;52.516;13.564;2023-06-22T10:34:54;3.10;;;2.67;;
23472;SDS011;11909;52.516;13.564;2023-06-22T10:39:54;3.45;;;2.58;;
23472;SDS011;11909;52.516;13.564;2023-06-22T10:42:22;4.72;;;2.47;;
23472;SDS011;11909;52.516;13.564;2023-06-22T10:44:50;2.88;;;2.42;;
23472;SDS011;11909;52.516;13.564;2023-06-22T10:47:18;7.78;;;3.70;;
23472;SDS011;11909;52.516;13.564;2023-06-22T10:49:46;4.60;;;3.45;;
23472;SDS011;11909;52.516;13.564;2023-06-22T10:52:14;4.05;;;2.78;;
23472;SDS011;11909;52.516;13.564;2023-06-22T10:54:42;3.03;;;2.58;;
23472;SDS011;11909;52.516;13.564;2023-06-22T10:57:11;3.28;;;2.53;;
23472;SDS011;11909;52.516;13.564;2023-06-22T10:59:39;5.03;;;2.80;;
23472;SDS011;11909;52.516;13.564;2023-06-22T11:02:07;3.63;;;2.90;;
23472;SDS011;11909;52.516;13.564;2023-06-22T11:04:35;6.82;;;2.78;;
23472;SDS011;11909;52.516;13.564;2023-06-22T11:07:03;5.68;;;3.08;;
23472;SDS011;11909;52.516;13.564;2023-06-22T11:09:31;3.05;;;2.45;;
23472;SDS011;11909;52.516;13.564;2023-06-22T11:12:00;6.18;;;2.78;;
23472;SDS011;11909;52.516;13.564;2023-06-22T11:14:29;3.63;;;2.90;;
23472;SDS011;11909;52.516;13.564;2023-06-22T11:16:57;3.45;;;3.15;;
23472;SDS011;11909;52.516;13.564;2023-06-22T11:19:25;5.78;;;3.90;;
23472;SDS011;11909;52.516;13.564;2023-06-22T11:21:53;5.30;;;3.20;;
23472;SDS011;11909;52.516;13.564;2023-06-22T11:24:21;3.72;;;3.00;;
23472;SDS011;11909;52.516;13.564;2023-06-22T11:26:49;3.80;;;2.75;;
23472;SDS011;11909;52.516;13.564;2023-06-22T11:29:17;3.65;;;2.60;;
23472;SDS011;11909;52.516;13.564;2023-06-22T11:32:04;4.85;;;3.10;;
23472;SDS011;11909;52.516;13.564;2023-06-22T11:34:33;4.57;;;2.50;;
23472;SDS011;11909;52.516;13.564;2023-06-22T11:37:01;3.78;;;2.72;;
23472;SDS011;11909;52.516;13.564;2023-06-22T11:39:29;5.78;;;2.42;;
23472;SDS011;11909;52.516;13.564;2023-06-22T11:42:13;3.83;;;2.72;;
23472;SDS011;11909;52.516;13.564;2023-06-22T11:44:41;3.70;;;2.70;;
23472;SDS011;11909;52.516;13.564;2023-06-22T11:47:11;4.85;;;2.97;;
23472;SDS011;11909;52.516;13.564;2023-06-22T11:49:39;5.57;;;3.13;;
23472;SDS011;11909;52.516;13.564;2023-06-22T11:52:07;4.43;;;2.70;;
23472;SDS011;11909;52.516;13.564;2023-06-22T11:54:35;3.83;;;3.10;;
23472;SDS011;11909;52.516;13.564;2023-06-22T11:57:03;2.85;;;2.60;;
23472;SDS011;11909;52.516;13.564;2023-06-22T11:59:32;5.07;;;2.75;;
23472;SDS011;11909;52.516;13.564;2023-06-22T12:01:59;4.10;;;2.83;;
23472;SDS011;11909;52.516;13.564;2023-06-22T12:04:29;3.22;;;2.75;;
23472;SDS011;11909;52.516;13.564;2023-06-22T12:06:57;2.83;;;2.60;;
23472;SDS011;11909;52.516;13.564;2023-06-22T12:09:25;2.80;;;2.50;;
23472;SDS011;11909;52.516;13.564;2023-06-22T12:11:53;4.15;;;3.03;;
23472;SDS011;11909;52.516;13.564;2023-06-22T12:14:21;2.92;;;2.58;;
23472;SDS011;11909;52.516;13.564;2023-06-22T12:16:49;4.15;;;3.15;;
23472;SDS011;11909;52.516;13.564;2023-06-22T12:19:17;3.50;;;3.20;;
23472;SDS011;11909;52.516;13.564;2023-06-22T12:21:46;6.10;;;2.80;;
23472;SDS011;11909;52.516;13.564;2023-06-22T12:24:14;3.80;;;3.10;;
23472;SDS011;11909;52.516;13.564;2023-06-22T12:26:42;3.97;;;3.03;;
23472;SDS011;11909;52.516;13.564;2023-06-22T12:29:10;4.80;;;3.47;;
23472;SDS011;11909;52.516;13.564;2023-06-22T12:31:38;5.35;;;3.25;;
23472;SDS011;11909;52.516;13.564;2023-06-22T12:34:06;3.47;;;3.17;;
23472;SDS011;11909;52.516;13.564;2023-06-22T12:36:34;3.20;;;2.90;;
23472;SDS011;11909;52.516;13.564;2023-06-22T12:39:03;4.30;;;3.78;;
23472;SDS011;11909;52.516;13.564;2023-06-22T12:41:31;14.90;;;4.20;;
23472;SDS011;11909;52.516;13.564;2023-06-22T12:43:59;4.57;;;3.33;;
23472;SDS011;11909;52.516;13.564;2023-06-22T12:46:27;5.13;;;3.47;;
23472;SDS011;11909;52.516;13.564;2023-06-22T12:48:56;5.07;;;3.13;;
23472;SDS011;11909;52.516;13.564;2023-06-22T12:51:24;5.18;;;3.03;;
23472;SDS011;11909;52.516;13.564;2023-06-22T12:53:52;3.40;;;3.10;;
23472;SDS011;11909;52.516;13.564;2023-06-22T12:56:21;3.40;;;3.10;;
23472;SDS011;11909;52.516;13.564;2023-06-22T12:58:49;3.38;;;3.05;;
23472;SDS011;11909;52.516;13.564;2023-06-22T13:01:17;3.40;;;2.97;;
23472;SDS011;11909;52.516;13.564;2023-06-22T13:03:45;3.35;;;2.75;;
23472;SDS011;11909;52.516;13.564;2023-06-22T13:06:13;4.32;;;3.20;;
23472;SDS011;11909;52.516;13.564;2023-06-22T13:08:41;3.60;;;3.30;;
23472;SDS011;11909;52.516;13.564;2023-06-22T13:11:30;5.15;;;3.42;;
23472;SDS011;11909;52.516;13.564;2023-06-22T13:13:59;4.13;;;3.27;;
23472;SDS011;11909;52.516;13.564;2023-06-22T13:16:26;3.30;;;3.00;;
23472;SDS011;11909;52.516;13.564;2023-06-22T13:18:54;5.30;;;3.30;;
23472;SDS011;11909;52.516;13.564;2023-06-22T13:21:22;6.72;;;3.08;;
23472;SDS011;11909;52.516;13.564;2023-06-22T13:23:50;4.03;;;3.40;;
23472;SDS011;11909;52.516;13.564;2023-06-22T13:26:18;3.83;;;3.50;;
23472;SDS011;11909;52.516;13.564;2023-06-22T13:28:47;3.90;;;3.60;;
23472;SDS011;11909;52.516;13.564;2023-06-22T13:31:15;4.28;;;3.83;;
23472;SDS011;11909;52.516;13.564;2023-06-22T13:33:44;4.20;;;3.40;;
23472;SDS011;11909;52.516;13.564;2023-06-22T13:36:14;3.90;;;3.50;;
23472;SDS011;11909;52.516;13.564;2023-06-22T13:38:42;4.65;;;3.30;;
23472;SDS011;11909;52.516;13.564;2023-06-22T13:41:09;6.97;;;3.30;;
23472;SDS011;11909;52.516;13.564;2023-06-22T13:43:38;3.60;;;3.30;;
23472;SDS011;11909;52.516;13.564;2023-06-22T13:46:07;3.70;;;3.38;;
23472;SDS011;11909;52.516;13.564;2023-06-22T13:48:35;4.70;;;3.45;;
23472;SDS011;11909;52.516;13.564;2023-06-22T13:51:03;4.03;;;3.42;;
23472;SDS011;11909;52.516;13.564;2023-06-22T13:53:31;3.80;;;3.50;;
23472;SDS011;11909;52.516;13.564;2023-06-22T13:55:58;5.47;;;3.13;;
23472;SDS011;11909;52.516;13.564;2023-06-22T13:58:26;3.47;;;3.17;;
23472;SDS011;11909;52.516;13.564;2023-06-22T14:00:54;3.78;;;3.20;;
23472;SDS011;11909;52.516;13.564;2023-06-22T14:03:24;3.92;;;3.53;;
23472;SDS011;11909;52.516;13.564;2023-06-22T14:05:51;3.78;;;3.38;;
23472;SDS011;11909;52.516;13.564;2023-06-22T14:08:23;4.32;;;3.65;;
23472;SDS011;11909;52.516;13.564;2023-06-22T14:11:07;4.40;;;3.30;;
23472;SDS011;11909;52.516;13.564;2023-06-22T14:13:35;3.78;;;3.38;;
23472;SDS011;11909;52.516;13.564;2023-06-22T14:16:03;4.25;;;3.30;;
23472;SDS011;11909;52.516;13.564;2023-06-22T14:18:33;3.70;;;3.40;;
23472;SDS011;11909;52.516;13.564;2023-06-22T14:21:01;4.63;;;3.53;;
23472;SDS011;11909;52.516;13.564;2023-06-22T14:23:29;3.90;;;3.30;;
23472;SDS011;11909;52.516;13.564;2023-06-22T14:25:57;4.40;;;3.40;;
23472;SDS011;11909;52.516;13.564;2023-06-22T14:28:25;4.70;;;3.20;;
23472;SDS011;11909;52.516;13.564;2023-06-22T14:30:52;4.50;;;3.65;;
23472;SDS011;11909;52.516;13.564;2023-06-22T14:33:20;7.28;;;3.55;;
23472;SDS011;11909;52.516;13.564;2023-06-22T14:35:50;3.88;;;3.22;;
23472;SDS011;11909;52.516;13.564;2023-06-22T14:38:18;4.00;;;3.45;;
23472;SDS011;11909;52.516;13.564;2023-06-22T14:40:46;4.00;;;3.60;;
23472;SDS011;11909;52.516;13.564;2023-06-22T14:43:19;3.95;;;3.55;;
23472;SDS011;11909;52.516;13.564;2023-06-22T14:45:47;4.40;;;3.78;;